createdAt,value
2023-01-23T00:01:50.082Z,2.68
2023-01-23T00:03:55.340Z,2.56
2023-01-23T00:06:00.395Z,2.56
2023-01-23T00:08:07.772Z,2.45
2023-01-23T00:10:13.362Z,2.51
2023-01-23T00:12:18.023Z,2.52
2023-01-23T00:14:22.691Z,2.30
2023-01-23T00:16:28.103Z,2.33
2023-01-23T00:18:32.736Z,2.33
2023-01-23T00:20:39.716Z,2.34
2023-01-23T00:22:44.289Z,2.35
2023-01-23T00:24:51.456Z,2.38
2023-01-23T00:26:55.988Z,2.46
2023-01-23T00:29:00.587Z,2.49
2023-01-23T00:31:06.405Z,2.43
2023-01-23T00:33:11.096Z,2.38
2023-01-23T00:35:15.989Z,2.37
2023-01-23T00:37:20.718Z,2.33
2023-01-23T00:39:27.473Z,2.39
2023-01-23T00:41:34.759Z,2.40
2023-01-23T00:43:39.312Z,2.45
2023-01-23T00:45:43.925Z,2.43
2023-01-23T00:47:50.674Z,2.42
2023-01-23T00:49:57.629Z,2.39
2023-01-23T00:52:02.193Z,2.42
2023-01-23T00:54:06.984Z,2.39
2023-01-23T00:56:11.791Z,2.35
2023-01-23T00:58:19.000Z,2.33
2023-01-23T01:00:23.718Z,2.32
2023-01-23T01:02:28.456Z,2.38
2023-01-23T01:04:33.067Z,2.38
2023-01-23T01:06:40.537Z,2.39
2023-01-23T01:08:45.050Z,2.41
2023-01-23T01:10:49.635Z,2.43
2023-01-23T01:12:54.157Z,2.43
2023-01-23T01:15:02.437Z,2.43
2023-01-23T01:17:07.209Z,2.42
2023-01-23T01:19:11.783Z,2.44
2023-01-23T01:21:17.460Z,2.43
2023-01-23T01:23:22.450Z,2.49
2023-01-23T01:25:27.030Z,2.44
2023-01-23T01:27:32.313Z,2.44
2023-01-23T01:29:37.079Z,2.36
2023-01-23T01:31:45.040Z,2.37
2023-01-23T01:33:50.649Z,2.37
2023-01-23T01:35:56.670Z,2.42
2023-01-23T01:38:01.552Z,2.44
2023-01-23T01:40:06.395Z,2.45
2023-01-23T01:42:11.012Z,2.43
2023-01-23T01:44:19.173Z,2.39
2023-01-23T01:46:24.924Z,2.31
2023-01-23T01:48:34.133Z,2.41
2023-01-23T01:50:38.720Z,2.47
2023-01-23T01:52:44.306Z,2.45
2023-01-23T01:54:49.990Z,2.48
2023-01-23T01:56:56.290Z,2.55
2023-01-23T01:59:01.448Z,2.59
2023-01-23T02:01:06.229Z,2.59
2023-01-23T02:03:10.971Z,2.59
2023-01-23T02:05:22.883Z,2.56
2023-01-23T02:07:29.742Z,2.58
2023-01-23T02:09:34.790Z,2.59
2023-01-23T02:11:39.802Z,2.63
2023-01-23T02:13:46.034Z,2.56
2023-01-23T02:15:50.858Z,2.54
2023-01-23T02:17:57.508Z,2.53
2023-01-23T02:20:06.151Z,2.56
2023-01-23T02:22:20.687Z,2.46
2023-01-23T02:24:29.010Z,2.42
2023-01-23T02:26:38.055Z,2.43
2023-01-23T02:28:44.162Z,2.36
2023-01-23T02:30:50.907Z,2.31
2023-01-23T02:33:10.232Z,2.25
2023-01-23T02:35:16.234Z,2.23
2023-01-23T02:37:21.674Z,2.21
2023-01-23T02:39:27.681Z,2.19
2023-01-23T02:41:37.079Z,2.16
2023-01-23T02:43:41.982Z,2.26
2023-01-23T02:45:46.542Z,2.24
2023-01-23T02:47:53.070Z,2.25
2023-01-23T02:49:58.874Z,2.22
2023-01-23T02:52:03.626Z,2.25
2023-01-23T02:54:08.701Z,2.31
2023-01-23T02:56:13.249Z,2.35
2023-01-23T02:58:32.654Z,2.34
2023-01-23T03:00:37.298Z,2.34
2023-01-23T03:02:41.866Z,2.32
2023-01-23T03:04:48.045Z,2.31
2023-01-23T03:06:52.683Z,2.26
2023-01-23T03:08:57.654Z,2.20
2023-01-23T03:11:02.227Z,2.22
2023-01-23T03:13:08.647Z,2.24
2023-01-23T03:15:16.079Z,2.21
2023-01-23T03:17:20.688Z,2.23
2023-01-23T03:19:27.127Z,2.22
2023-01-23T03:21:31.777Z,2.22
2023-01-23T03:23:36.625Z,2.23
2023-01-23T03:25:45.408Z,2.20
2023-01-23T03:27:50.415Z,2.20
2023-01-23T03:30:07.688Z,2.22
2023-01-23T03:32:15.901Z,2.22
2023-01-23T03:34:22.368Z,2.23
2023-01-23T03:36:27.044Z,2.18
2023-01-23T03:38:31.731Z,2.19
2023-01-23T03:40:48.780Z,2.19
2023-01-23T03:42:54.631Z,2.21
2023-01-23T03:45:04.750Z,2.23
2023-01-23T03:47:11.906Z,2.22
2023-01-23T03:49:20.846Z,2.22
2023-01-23T03:51:31.958Z,2.15
2023-01-23T03:53:36.574Z,2.19
2023-01-23T03:55:41.406Z,2.12
2023-01-23T03:57:45.994Z,2.14
2023-01-23T04:00:01.930Z,2.17
2023-01-23T04:02:18.375Z,2.19
2023-01-23T04:04:25.727Z,2.28
2023-01-23T04:06:30.420Z,2.32
2023-01-23T04:08:35.021Z,2.30
2023-01-23T04:10:39.644Z,2.27
2023-01-23T04:12:51.190Z,2.26
2023-01-23T04:14:56.553Z,2.17
2023-01-23T04:17:01.183Z,2.24
2023-01-23T04:19:06.376Z,2.28
2023-01-23T04:21:13.613Z,2.28
2023-01-23T04:23:18.337Z,2.29
2023-01-23T04:25:23.004Z,2.33
2023-01-23T04:27:27.652Z,2.29
2023-01-23T04:29:33.753Z,2.18
2023-01-23T04:31:39.633Z,2.16
2023-01-23T04:33:44.387Z,2.16
2023-01-23T04:35:53.905Z,2.18
2023-01-23T04:38:01.168Z,2.18
2023-01-23T04:40:07.858Z,2.23
2023-01-23T04:42:22.033Z,2.28
2023-01-23T04:44:39.567Z,2.30
2023-01-23T04:47:15.063Z,2.34
2023-01-23T04:49:20.086Z,2.36
2023-01-23T04:51:25.585Z,2.33
2023-01-23T04:53:32.870Z,2.33
2023-01-23T04:55:39.906Z,2.33
2023-01-23T04:57:47.462Z,2.29
2023-01-23T05:00:01.590Z,2.28
2023-01-23T05:02:07.497Z,2.29
2023-01-23T05:04:18.445Z,2.28
2023-01-23T05:06:25.186Z,2.29
2023-01-23T05:08:35.688Z,2.29
2023-01-23T05:10:50.018Z,2.33
2023-01-23T05:12:56.767Z,2.36
2023-01-23T05:15:03.187Z,2.39
2023-01-23T05:17:08.489Z,2.36
2023-01-23T05:19:18.020Z,2.42
2023-01-23T05:21:23.151Z,2.44
2023-01-23T05:23:27.832Z,2.41
2023-01-23T05:25:35.561Z,2.39
2023-01-23T05:27:41.563Z,2.38
2023-01-23T05:29:46.199Z,2.39
2023-01-23T05:31:58.489Z,2.38
2023-01-23T05:34:15.123Z,2.37
2023-01-23T05:36:19.855Z,2.32
2023-01-23T05:38:25.191Z,2.23
2023-01-23T05:40:31.252Z,2.26
2023-01-23T05:42:57.013Z,2.35
2023-01-23T05:45:20.063Z,2.35
2023-01-23T05:47:25.171Z,2.35
2023-01-23T05:49:30.218Z,2.30
2023-01-23T05:51:35.447Z,2.22
2023-01-23T05:53:40.066Z,2.25
2023-01-23T05:55:45.381Z,2.29
2023-01-23T05:57:51.783Z,2.32
2023-01-23T06:00:31.445Z,2.33
2023-01-23T06:03:06.670Z,2.29
2023-01-23T06:05:43.488Z,2.22
2023-01-23T06:07:54.379Z,2.16
2023-01-23T06:09:58.994Z,2.11
2023-01-23T06:12:03.750Z,2.13
2023-01-23T06:14:08.414Z,2.12
2023-01-23T06:16:16.084Z,2.17
2023-01-23T06:18:21.983Z,2.20
2023-01-23T06:20:26.556Z,2.16
2023-01-23T06:22:31.596Z,2.14
2023-01-23T06:24:43.744Z,2.17
2023-01-23T06:26:48.594Z,2.13
2023-01-23T06:28:53.294Z,2.12
2023-01-23T06:30:57.978Z,2.11
2023-01-23T06:33:15.252Z,2.08
2023-01-23T06:35:20.326Z,2.01
2023-01-23T06:37:25.080Z,1.95
2023-01-23T06:39:30.317Z,1.88
2023-01-23T06:41:35.486Z,1.92
2023-01-23T06:43:42.487Z,1.95
2023-01-23T06:45:53.624Z,1.96
2023-01-23T06:47:58.360Z,1.95
2023-01-23T06:50:07.668Z,1.98
2023-01-23T06:52:15.177Z,2.08
2023-01-23T06:54:22.842Z,2.16
2023-01-23T06:56:27.562Z,2.25
2023-01-23T06:58:32.224Z,2.30
2023-01-23T07:00:37.497Z,2.31
2023-01-23T07:02:45.613Z,2.28
2023-01-23T07:04:50.632Z,2.26
2023-01-23T07:06:58.151Z,2.32
2023-01-23T07:09:02.823Z,2.34
2023-01-23T07:11:08.459Z,2.36
2023-01-23T07:13:14.522Z,2.32
2023-01-23T07:15:19.347Z,2.32
2023-01-23T07:17:25.862Z,2.29
2023-01-23T07:19:30.701Z,2.28
2023-01-23T07:21:36.911Z,2.32
2023-01-23T07:23:44.166Z,2.30
2023-01-23T07:25:48.863Z,2.28
2023-01-23T07:27:53.510Z,2.23
2023-01-23T07:29:58.060Z,2.25
2023-01-23T07:32:03.309Z,2.25
2023-01-23T07:34:07.884Z,2.19
2023-01-23T07:36:14.112Z,2.22
2023-01-23T07:38:18.717Z,2.25
2023-01-23T07:40:26.134Z,2.28
2023-01-23T07:42:30.690Z,2.25
2023-01-23T07:44:35.396Z,2.23
2023-01-23T07:46:39.988Z,2.24
2023-01-23T07:48:44.712Z,2.24
2023-01-23T07:50:49.333Z,2.25
2023-01-23T07:52:56.138Z,2.22
2023-01-23T07:55:01.459Z,2.22
2023-01-23T07:57:08.689Z,2.19
2023-01-23T07:59:14.536Z,2.18
2023-01-23T08:01:19.422Z,2.14
2023-01-23T08:03:24.030Z,2.18
2023-01-23T08:05:28.622Z,2.22
2023-01-23T08:07:33.162Z,2.23
2023-01-23T08:09:38.560Z,2.24
2023-01-23T08:11:43.112Z,2.14
2023-01-23T08:13:51.451Z,2.04
2023-01-23T08:15:56.218Z,2.05
2023-01-23T08:18:00.808Z,2.14
2023-01-23T08:20:05.677Z,2.19
2023-01-23T08:22:10.284Z,2.13
2023-01-23T08:24:15.195Z,2.22
2023-01-23T08:26:20.214Z,2.23
2023-01-23T08:28:26.870Z,2.26
2023-01-23T08:30:34.067Z,2.29
2023-01-23T08:32:39.024Z,2.30
2023-01-23T08:34:43.744Z,2.34
2023-01-23T08:36:48.288Z,2.24
2023-01-23T08:38:52.899Z,2.25
2023-01-23T08:40:58.016Z,2.26
2023-01-23T08:43:02.587Z,2.32
2023-01-23T08:45:07.677Z,2.35
2023-01-23T08:47:14.888Z,2.35
2023-01-23T08:49:20.440Z,2.43
2023-01-23T08:51:25.737Z,2.41
2023-01-23T08:53:30.759Z,2.44
2023-01-23T08:55:36.200Z,2.42
2023-01-23T08:57:40.759Z,2.47
2023-01-23T08:59:45.804Z,2.49
2023-01-23T09:01:50.416Z,2.47
2023-01-23T09:03:57.895Z,2.47
2023-01-23T09:06:03.564Z,2.45
2023-01-23T09:08:08.093Z,2.48
2023-01-23T09:10:13.881Z,2.52
2023-01-23T09:12:18.455Z,2.41
2023-01-23T09:14:23.014Z,2.46
2023-01-23T09:16:27.764Z,2.52
2023-01-23T09:18:32.397Z,2.65
2023-01-23T09:20:40.289Z,2.72
2023-01-23T09:22:44.909Z,2.81
2023-01-23T09:24:49.492Z,2.89
2023-01-23T09:26:54.021Z,2.89
2023-01-23T09:28:58.568Z,2.99
2023-01-23T09:31:05.429Z,2.96
2023-01-23T09:33:10.532Z,2.95
2023-01-23T09:35:15.181Z,2.93
2023-01-23T09:37:22.341Z,2.91
2023-01-23T09:39:26.898Z,2.92
2023-01-23T09:41:32.044Z,2.92
2023-01-23T09:43:41.026Z,2.92
2023-01-23T09:45:50.289Z,2.94
2023-01-23T09:47:58.133Z,2.91
2023-01-23T09:50:04.489Z,2.95
2023-01-23T09:52:13.422Z,2.98
2023-01-23T09:54:25.950Z,2.97
2023-01-23T09:56:32.275Z,2.95
2023-01-23T09:58:39.912Z,3.02
2023-01-23T10:00:44.518Z,3.01
2023-01-23T10:02:49.567Z,3.06
2023-01-23T10:04:56.251Z,3.05
2023-01-23T10:07:11.466Z,3.16
2023-01-23T10:09:29.360Z,3.06
2023-01-23T10:11:42.862Z,3.01
2023-01-23T10:13:57.523Z,3.10
2023-01-23T10:16:17.018Z,3.23
2023-01-23T10:18:27.116Z,3.37
2023-01-23T10:20:46.717Z,3.36
2023-01-23T10:22:58.480Z,3.25
2023-01-23T10:25:11.828Z,3.19
2023-01-23T10:27:21.467Z,3.28
2023-01-23T10:29:31.766Z,3.31
2023-01-23T10:31:39.045Z,3.31
2023-01-23T10:33:49.474Z,3.37
2023-01-23T10:35:55.810Z,3.47
2023-01-23T10:40:14.299Z,3.63
2023-01-23T10:42:23.933Z,3.65
2023-01-23T10:44:28.798Z,3.60
2023-01-23T10:46:37.817Z,3.73
2023-01-23T10:48:46.006Z,3.79
2023-01-23T10:50:51.724Z,3.92
2023-01-23T10:53:09.438Z,4.10
2023-01-23T10:55:34.052Z,4.20
2023-01-23T10:57:49.090Z,4.10
2023-01-23T11:00:00.544Z,3.95
2023-01-23T11:02:22.063Z,3.82
2023-01-23T11:04:29.732Z,3.77
2023-01-23T11:06:34.587Z,3.89
2023-01-23T11:08:41.599Z,4.07
2023-01-23T11:10:49.077Z,4.22
2023-01-23T11:12:56.442Z,4.13
2023-01-23T11:15:16.581Z,4.16
2023-01-23T11:17:26.667Z,4.08
2023-01-23T11:19:34.985Z,4.07
2023-01-23T11:21:51.903Z,4.08
2023-01-23T11:24:12.096Z,4.15
2023-01-23T11:26:37.947Z,4.10
2023-01-23T11:28:51.545Z,4.08
2023-01-23T11:31:13.807Z,4.13
2023-01-23T11:33:36.646Z,4.16
2023-01-23T11:36:03.125Z,4.04
2023-01-23T11:38:09.193Z,3.96
2023-01-23T11:40:17.783Z,3.89
2023-01-23T11:42:30.064Z,3.85
2023-01-23T11:44:45.659Z,3.77
2023-01-23T11:47:09.183Z,3.67
2023-01-23T11:49:27.378Z,3.69
2023-01-23T11:51:39.414Z,3.59
2023-01-23T11:53:53.060Z,3.68
2023-01-23T11:56:32.736Z,3.63
2023-01-23T11:59:04.913Z,3.70
2023-01-23T12:01:16.051Z,3.77
2023-01-23T12:03:50.946Z,3.73
2023-01-23T12:08:50.419Z,3.61
2023-01-23T12:11:13.943Z,3.56
2023-01-23T12:13:36.466Z,3.57
2023-01-23T12:15:50.036Z,3.52
2023-01-23T12:20:27.471Z,3.47
2023-01-23T12:22:43.483Z,3.47
2023-01-23T12:25:13.908Z,3.46
2023-01-23T12:27:27.618Z,3.45
2023-01-23T12:29:52.448Z,3.30
2023-01-23T12:32:17.628Z,3.29
2023-01-23T12:34:32.803Z,3.21
2023-01-23T12:37:10.248Z,3.31
2023-01-23T12:39:34.716Z,3.37
2023-01-23T12:41:45.432Z,3.53
2023-01-23T12:43:57.109Z,3.67
2023-01-23T12:46:06.721Z,3.74
2023-01-23T12:48:18.721Z,3.88
2023-01-23T12:50:31.931Z,3.97
2023-01-23T12:52:42.806Z,3.99
2023-01-23T12:54:53.775Z,3.97
2023-01-23T12:56:59.466Z,3.97
2023-01-23T12:59:14.377Z,3.97
2023-01-23T13:01:32.755Z,3.98
2023-01-23T13:03:56.078Z,3.96
2023-01-23T13:06:13.321Z,4.00
2023-01-23T13:08:29.112Z,4.07
2023-01-23T13:11:03.414Z,4.09
2023-01-23T13:13:09.089Z,4.17
2023-01-23T13:15:39.626Z,4.30
2023-01-23T13:17:50.540Z,4.35
2023-01-23T13:20:34.075Z,4.41
2023-01-23T13:22:39.214Z,4.27
2023-01-23T13:25:00.096Z,4.36
2023-01-23T13:27:55.833Z,4.38
2023-01-23T13:30:02.460Z,4.43
2023-01-23T13:32:30.809Z,4.54
2023-01-23T13:34:41.809Z,4.66
2023-01-23T13:36:50.995Z,4.79
2023-01-23T13:39:22.734Z,4.80
2023-01-23T13:41:31.558Z,4.83
2023-01-23T13:43:45.080Z,4.89
2023-01-23T13:45:52.721Z,4.85
2023-01-23T14:21:27.766Z,4.68
2023-01-23T14:23:40.961Z,4.69
2023-01-23T14:25:46.005Z,4.61
2023-01-23T14:28:05.680Z,4.58
2023-01-23T14:30:20.473Z,4.49
2023-01-23T14:32:26.237Z,4.42
2023-01-23T14:34:31.404Z,4.34
2023-01-23T14:36:37.598Z,4.26
2023-01-23T14:38:42.432Z,4.26
2023-01-23T14:40:51.095Z,4.26
2023-01-23T14:43:03.048Z,4.27
2023-01-23T14:45:09.375Z,4.31
2023-01-23T14:47:19.571Z,4.30
2023-01-23T14:49:29.819Z,4.41
2023-01-23T14:51:34.668Z,4.44
2023-01-23T14:53:43.436Z,4.52
2023-01-23T14:55:52.667Z,4.59
2023-01-23T14:58:02.769Z,4.59
2023-01-23T15:00:08.970Z,4.54
2023-01-23T15:02:31.227Z,4.48
2023-01-23T15:04:36.303Z,4.38
2023-01-23T15:06:41.163Z,4.42
2023-01-23T15:08:46.235Z,4.40
2023-01-23T15:10:53.315Z,4.35
2023-01-23T15:13:03.873Z,4.37
2023-01-23T15:15:20.709Z,4.42
2023-01-23T15:17:25.901Z,4.46
2023-01-23T15:19:31.654Z,4.41
2023-01-23T15:21:42.045Z,4.44
2023-01-23T15:24:03.143Z,4.29
2023-01-23T15:26:33.669Z,4.37
2023-01-23T15:28:45.071Z,4.33
2023-01-23T15:30:50.661Z,4.36
2023-01-23T15:32:55.496Z,4.35
2023-01-23T15:35:00.427Z,4.35
2023-01-23T15:37:08.713Z,4.38
2023-01-23T15:39:21.476Z,4.21
2023-01-23T15:41:41.279Z,4.19
2023-01-23T15:43:48.744Z,4.15
2023-01-23T15:45:53.791Z,4.13
2023-01-23T15:47:58.626Z,3.98
2023-01-23T15:50:04.005Z,3.89
2023-01-23T15:52:21.365Z,3.80
2023-01-23T15:54:31.126Z,3.66
2023-01-23T15:56:37.611Z,3.54
2023-01-23T15:58:42.392Z,3.47
2023-01-23T16:00:49.857Z,3.40
2023-01-23T16:02:57.052Z,3.32
2023-01-23T16:05:03.099Z,3.17
2023-01-23T16:07:10.573Z,3.16
2023-01-23T16:09:26.134Z,3.03
2023-01-23T16:11:34.601Z,2.95
2023-01-23T16:13:39.894Z,2.94
2023-01-23T16:15:44.587Z,2.90
2023-01-23T16:17:52.987Z,2.83
2023-01-23T16:19:57.818Z,2.88
2023-01-23T16:22:05.323Z,2.80
2023-01-23T16:24:18.698Z,2.81
2023-01-23T16:26:25.888Z,2.83
2023-01-23T16:28:32.592Z,2.86
2023-01-23T16:30:37.454Z,2.86
2023-01-23T16:32:42.783Z,2.86
2023-01-23T16:34:50.732Z,2.93
2023-01-23T16:36:58.884Z,3.03
2023-01-23T16:39:05.170Z,2.96
2023-01-23T16:41:12.440Z,3.01
2023-01-23T16:43:17.327Z,3.04
2023-01-23T16:45:25.239Z,3.11
2023-01-23T16:47:30.830Z,3.14
2023-01-23T16:49:46.756Z,3.25
2023-01-23T16:52:03.084Z,3.30
2023-01-23T16:54:18.311Z,3.29
2023-01-23T16:56:24.350Z,3.24
2023-01-23T16:58:31.938Z,3.28
2023-01-23T17:00:38.113Z,3.25
2023-01-23T17:02:43.287Z,3.18
2023-01-23T17:04:48.417Z,3.18
2023-01-23T17:06:53.411Z,3.17
2023-01-23T17:09:01.029Z,3.16
2023-01-23T17:11:08.211Z,3.17
2023-01-23T17:13:14.945Z,3.09
2023-01-23T17:15:26.858Z,3.21
2023-01-23T17:17:34.730Z,3.15
2023-01-23T17:19:42.565Z,3.13
2023-01-23T17:21:48.092Z,3.18
2023-01-23T17:23:53.324Z,3.23
2023-01-23T17:26:01.808Z,3.21
2023-01-23T17:28:12.445Z,3.16
2023-01-23T17:30:20.054Z,3.14
2023-01-23T17:32:30.803Z,3.11
2023-01-23T17:34:49.463Z,3.04
2023-01-23T17:36:56.092Z,3.05
2023-01-23T17:39:03.217Z,3.02
2023-01-23T17:41:15.844Z,3.01
2023-01-23T17:43:22.104Z,3.02
2023-01-23T17:45:29.179Z,3.10
2023-01-23T17:47:35.545Z,3.15
2023-01-23T17:49:40.720Z,3.13
2023-01-23T17:51:45.574Z,3.16
2023-01-23T17:53:51.505Z,3.15
2023-01-23T17:55:56.487Z,3.04
2023-01-23T17:58:03.917Z,3.13
2023-01-23T18:00:10.767Z,3.14
2023-01-23T18:02:26.781Z,3.22
2023-01-23T18:04:31.805Z,3.13
2023-01-23T18:06:36.829Z,3.10
2023-01-23T18:08:42.482Z,3.06
2023-01-23T18:10:49.930Z,3.08
2023-01-23T18:13:07.234Z,3.09
2023-01-23T18:15:19.326Z,3.23
2023-01-23T18:17:36.287Z,3.24
2023-01-23T18:19:41.765Z,3.27
2023-01-23T18:21:47.563Z,3.27
2023-01-23T18:23:52.926Z,3.26
2023-01-23T18:26:04.814Z,3.31
2023-01-23T18:28:20.075Z,3.38
2023-01-23T18:30:49.157Z,3.43
2023-01-23T18:33:09.869Z,3.35
2023-01-23T18:35:29.662Z,3.41
2023-01-23T18:37:44.172Z,3.42
2023-01-23T18:40:01.831Z,3.40
2023-01-23T18:42:18.744Z,3.36
2023-01-23T18:44:29.298Z,3.31
2023-01-23T18:46:34.865Z,3.22
2023-01-23T18:48:42.002Z,3.15
2023-01-23T18:51:08.447Z,3.13
2023-01-23T18:53:24.566Z,3.15
2023-01-23T18:55:39.758Z,3.24
2023-01-23T18:58:11.300Z,3.22
2023-01-23T19:00:25.002Z,3.14
2023-01-23T19:02:36.027Z,3.19
2023-01-23T19:04:47.332Z,3.27
2023-01-23T19:06:52.991Z,3.30
2023-01-23T19:08:58.171Z,3.32
2023-01-23T19:11:11.421Z,3.33
2023-01-23T19:13:22.702Z,3.39
2023-01-23T19:15:34.834Z,3.40
2023-01-23T19:17:49.156Z,3.33
2023-01-23T19:20:05.771Z,3.22
2023-01-23T19:22:14.417Z,3.16
2023-01-23T19:24:22.280Z,3.17
2023-01-23T19:26:29.750Z,3.20
2023-01-23T19:28:37.780Z,3.23
2023-01-23T19:30:47.009Z,3.32
2023-01-23T19:32:52.356Z,3.29
2023-01-23T19:35:12.524Z,3.26
2023-01-23T19:37:18.729Z,3.35
2023-01-23T19:39:23.357Z,3.34
2023-01-23T19:41:30.893Z,3.35
2023-01-23T19:43:35.742Z,3.41
2023-01-23T19:45:40.544Z,3.44
2023-01-23T19:47:49.296Z,3.42
2023-01-23T19:49:54.121Z,3.43
2023-01-23T19:51:59.007Z,3.40
2023-01-23T19:54:06.591Z,3.45
2023-01-23T19:56:13.668Z,3.43
2023-01-23T19:58:18.479Z,3.43
2023-01-23T20:00:23.618Z,3.27
2023-01-23T20:02:29.090Z,3.34
2023-01-23T20:04:36.722Z,3.38
2023-01-23T20:06:41.729Z,3.33
2023-01-23T20:08:46.530Z,3.39
2023-01-23T20:10:51.363Z,3.40
2023-01-23T20:12:56.843Z,3.38
2023-01-23T20:15:01.759Z,3.43
2023-01-23T20:17:06.774Z,3.38
2023-01-23T20:19:15.701Z,3.36
2023-01-23T20:21:24.593Z,3.43
2023-01-23T20:23:29.724Z,3.50
2023-01-23T20:25:34.385Z,3.45
2023-01-23T20:27:39.605Z,3.45
2023-01-23T20:29:44.184Z,3.44
2023-01-23T20:31:50.012Z,3.46
2023-01-23T20:33:54.861Z,3.52
2023-01-23T20:35:59.697Z,3.50
2023-01-23T20:38:07.136Z,3.52
2023-01-23T20:40:14.266Z,3.44
2023-01-23T20:42:19.348Z,3.35
2023-01-23T20:44:24.416Z,3.37
2023-01-23T20:46:29.772Z,3.36
2023-01-23T20:48:36.574Z,3.40
2023-01-23T20:50:41.566Z,3.40
2023-01-23T20:52:58.809Z,3.44
2023-01-23T20:55:06.465Z,3.54
2023-01-23T20:57:11.783Z,3.38
2023-01-23T20:59:19.812Z,3.36
2023-01-23T21:01:27.990Z,3.27
2023-01-23T21:03:33.079Z,3.26
2023-01-23T21:05:37.920Z,3.36
2023-01-23T21:07:42.898Z,3.40
2023-01-23T21:09:48.237Z,3.43
2023-01-23T21:11:56.607Z,3.46
2023-01-23T21:14:01.482Z,3.56
2023-01-23T21:16:08.648Z,3.60
2023-01-23T21:18:13.634Z,3.68
2023-01-23T21:20:18.964Z,3.64
2023-01-23T21:22:23.830Z,3.76
2023-01-23T21:24:28.947Z,3.77
2023-01-23T21:26:33.966Z,3.76
2023-01-23T21:28:41.520Z,3.86
2023-01-23T21:30:46.552Z,3.83
2023-01-23T21:32:51.466Z,3.93
2023-01-23T21:34:56.322Z,3.96
2023-01-23T21:37:01.227Z,4.00
2023-01-23T21:39:09.350Z,3.91
2023-01-23T21:41:15.217Z,3.89
2023-01-23T21:43:20.021Z,3.82
2023-01-23T21:45:27.845Z,3.81
2023-01-23T21:47:32.675Z,3.78
2023-01-23T21:49:37.577Z,3.71
2023-01-23T21:51:42.448Z,3.64
2023-01-23T21:53:49.041Z,3.61
2023-01-23T21:55:54.979Z,3.62
2023-01-23T21:57:59.772Z,3.69
2023-01-23T22:00:17.254Z,3.69
2023-01-23T22:02:24.819Z,3.65
2023-01-23T22:04:29.957Z,3.61
2023-01-23T22:06:35.412Z,3.65
2023-01-23T22:08:40.288Z,3.65
2023-01-23T22:10:45.126Z,3.67
2023-01-23T22:12:50.501Z,3.67
2023-01-23T22:14:55.340Z,3.62
2023-01-23T22:17:00.287Z,3.52
2023-01-23T22:19:07.855Z,3.53
2023-01-23T22:21:13.112Z,3.55
2023-01-23T22:23:17.729Z,3.51
2023-01-23T22:25:22.879Z,3.50
2023-01-23T22:27:28.057Z,3.49
2023-01-23T22:29:32.862Z,3.37
2023-01-23T22:31:37.809Z,3.51
2023-01-23T22:33:44.462Z,3.53
2023-01-23T22:35:52.533Z,3.62
2023-01-23T22:37:57.367Z,3.53
2023-01-23T22:40:02.236Z,3.55
2023-01-23T22:42:07.352Z,3.55
2023-01-23T22:44:11.966Z,3.47
2023-01-23T22:46:19.437Z,3.46
2023-01-23T22:48:24.280Z,3.38
2023-01-23T22:50:29.626Z,3.34
2023-01-23T22:52:37.147Z,3.31
2023-01-23T22:54:42.010Z,3.30
2023-01-23T22:56:46.944Z,3.34
2023-01-23T22:58:54.421Z,3.40
2023-01-23T23:00:59.528Z,3.45
2023-01-23T23:03:04.383Z,3.48
2023-01-23T23:05:10.807Z,3.54
2023-01-23T23:07:16.970Z,3.55
2023-01-23T23:09:24.552Z,3.58
2023-01-23T23:11:30.721Z,3.59
2023-01-23T23:13:38.697Z,3.55
2023-01-23T23:15:43.556Z,3.60
2023-01-23T23:17:48.522Z,3.59
2023-01-23T23:19:53.676Z,3.55
2023-01-23T23:21:58.267Z,3.56
2023-01-23T23:24:03.863Z,3.56
2023-01-23T23:26:13.280Z,3.52
2023-01-23T23:28:18.092Z,3.55
2023-01-23T23:30:23.129Z,3.53
2023-01-23T23:32:28.062Z,3.53
2023-01-23T23:34:33.927Z,3.47
2023-01-23T23:36:39.952Z,3.48
2023-01-23T23:38:44.818Z,3.32
2023-01-23T23:40:56.963Z,3.36
2023-01-23T23:43:04.411Z,3.37
2023-01-23T23:45:10.857Z,3.39
2023-01-23T23:47:15.672Z,3.44
2023-01-23T23:49:20.484Z,3.42
2023-01-23T23:51:26.729Z,3.40
2023-01-23T23:53:32.276Z,3.38
2023-01-23T23:55:37.107Z,3.31
2023-01-23T23:57:41.955Z,3.36
2023-01-23T23:59:49.366Z,3.39
